createdAt,value
2019-03-30T00:00:05.304Z,3.08
2019-03-30T00:02:35.723Z,3.13
2019-03-30T00:05:05.670Z,3.18
2019-03-30T00:07:34.550Z,3.22
2019-03-30T00:10:03.483Z,3.17
2019-03-30T00:12:32.348Z,3.22
2019-03-30T00:15:01.223Z,3.15
2019-03-30T00:17:30.075Z,2.97
2019-03-30T00:19:58.838Z,2.96
2019-03-30T00:22:27.687Z,2.83
2019-03-30T00:24:56.536Z,2.82
2019-03-30T00:27:25.427Z,2.77
2019-03-30T00:29:54.266Z,2.77
2019-03-30T00:32:23.032Z,2.82
2019-03-30T00:34:51.917Z,2.84
2019-03-30T00:37:20.763Z,2.93
2019-03-30T00:39:49.613Z,2.86
2019-03-30T00:42:18.423Z,2.82
2019-03-30T00:44:47.216Z,2.73
2019-03-30T00:47:16.045Z,2.80
2019-03-30T00:49:49.761Z,2.80
2019-03-30T00:52:15.480Z,2.87
2019-03-30T00:54:44.345Z,2.96
2019-03-30T00:57:13.181Z,2.93
2019-03-30T00:59:42.015Z,2.88
2019-03-30T01:02:10.889Z,2.89
2019-03-30T01:04:39.722Z,2.97
2019-03-30T01:07:08.557Z,3.01
2019-03-30T01:09:37.400Z,3.13
2019-03-30T01:12:06.350Z,3.23
2019-03-30T01:14:35.182Z,3.27
2019-03-30T01:17:04.343Z,3.40
2019-03-30T01:19:33.119Z,3.52
2019-03-30T01:22:01.951Z,3.60
2019-03-30T01:24:30.812Z,3.67
2019-03-30T01:26:59.638Z,3.68
2019-03-30T01:29:28.538Z,3.71
2019-03-30T01:31:57.383Z,3.72
2019-03-30T01:34:26.210Z,3.78
2019-03-30T01:36:55.074Z,3.80
2019-03-30T01:39:23.917Z,3.84
2019-03-30T01:41:52.766Z,3.92
2019-03-30T01:44:21.658Z,3.99
2019-03-30T01:46:50.544Z,4.12
2019-03-30T01:49:19.395Z,4.18
2019-03-30T01:51:48.226Z,4.33
2019-03-30T01:54:17.093Z,4.36
2019-03-30T01:56:45.864Z,4.47
2019-03-30T01:59:14.694Z,4.49
2019-03-30T02:01:43.539Z,4.53
2019-03-30T02:04:12.374Z,4.58
2019-03-30T02:06:41.255Z,4.67
2019-03-30T02:09:10.105Z,4.86
2019-03-30T02:11:38.954Z,4.95
2019-03-30T02:14:07.870Z,4.97
2019-03-30T02:16:36.713Z,5.01
2019-03-30T02:19:05.574Z,5.06
2019-03-30T02:21:34.494Z,5.10
2019-03-30T02:24:03.458Z,4.88
2019-03-30T02:26:32.246Z,4.81
2019-03-30T02:29:01.110Z,4.71
2019-03-30T02:31:29.998Z,4.64
2019-03-30T02:33:58.792Z,4.55
2019-03-30T02:36:27.658Z,4.36
2019-03-30T02:38:56.516Z,4.28
2019-03-30T02:41:25.357Z,4.33
2019-03-30T02:43:54.128Z,4.32
2019-03-30T02:46:22.965Z,4.17
2019-03-30T02:48:51.761Z,3.97
2019-03-30T02:51:20.605Z,3.95
2019-03-30T02:53:49.488Z,3.91
2019-03-30T02:56:18.253Z,3.90
2019-03-30T02:58:47.685Z,3.91
2019-03-30T03:01:16.569Z,3.94
2019-03-30T03:03:45.397Z,3.88
2019-03-30T03:06:14.233Z,3.90
2019-03-30T03:08:43.077Z,3.92
2019-03-30T03:11:11.925Z,3.87
2019-03-30T03:13:40.768Z,3.97
2019-03-30T03:16:09.526Z,4.00
2019-03-30T03:18:38.370Z,4.04
2019-03-30T03:21:08.704Z,4.07
2019-03-30T03:23:37.866Z,4.07
2019-03-30T03:26:06.629Z,4.10
2019-03-30T03:28:35.481Z,4.18
2019-03-30T03:31:04.369Z,4.21
2019-03-30T03:33:33.256Z,4.30
2019-03-30T03:36:02.021Z,4.26
2019-03-30T03:38:30.844Z,4.18
2019-03-30T03:40:59.770Z,4.23
2019-03-30T03:43:28.617Z,4.24
2019-03-30T03:45:57.406Z,3.98
2019-03-30T03:48:26.175Z,3.97
2019-03-30T03:51:02.478Z,3.98
2019-03-30T03:53:32.406Z,3.85
2019-03-30T03:56:01.984Z,3.75
2019-03-30T03:58:33.681Z,3.71
2019-03-30T04:01:03.525Z,3.79
2019-03-30T04:03:33.991Z,3.68
2019-03-30T04:06:05.741Z,3.80
2019-03-30T04:08:34.688Z,3.71
2019-03-30T04:11:17.913Z,3.79
2019-03-30T04:13:43.095Z,3.85
2019-03-30T04:16:11.950Z,4.01
2019-03-30T04:18:40.711Z,3.97
2019-03-30T04:21:09.569Z,4.00
2019-03-30T04:23:38.402Z,4.05
2019-03-30T04:26:07.271Z,4.06
2019-03-30T04:28:36.118Z,4.07
2019-03-30T04:31:04.956Z,3.96
2019-03-30T04:33:33.783Z,4.06
2019-03-30T04:36:02.632Z,4.04
2019-03-30T04:38:31.463Z,4.08
2019-03-30T04:41:00.335Z,4.14
2019-03-30T04:43:29.174Z,4.16
2019-03-30T04:45:58.056Z,4.05
2019-03-30T04:48:29.481Z,3.95
2019-03-30T04:50:57.469Z,4.17
2019-03-30T04:53:26.328Z,4.20
2019-03-30T04:55:55.173Z,4.28
2019-03-30T04:58:24.021Z,4.40
2019-03-30T05:00:52.821Z,4.43
2019-03-30T05:03:21.699Z,4.41
2019-03-30T05:05:50.475Z,4.40
2019-03-30T05:08:19.326Z,4.46
2019-03-30T05:10:48.166Z,4.57
2019-03-30T05:13:17.207Z,4.76
2019-03-30T05:15:46.024Z,4.75
2019-03-30T05:18:14.982Z,4.86
2019-03-30T05:20:43.820Z,4.90
2019-03-30T05:23:12.684Z,4.93
2019-03-30T05:25:41.524Z,5.06
2019-03-30T05:28:10.294Z,5.14
2019-03-30T05:30:39.194Z,5.16
2019-03-30T05:33:08.072Z,5.25
2019-03-30T05:35:36.919Z,5.47
2019-03-30T05:38:05.804Z,5.73
2019-03-30T05:40:34.835Z,5.67
2019-03-30T05:43:03.684Z,5.81
2019-03-30T05:45:32.526Z,5.88
2019-03-30T05:48:01.446Z,6.08
2019-03-30T05:50:30.283Z,6.11
2019-03-30T05:52:59.059Z,6.17
2019-03-30T05:55:27.902Z,6.11
2019-03-30T05:57:56.749Z,6.36
2019-03-30T06:00:26.003Z,6.62
2019-03-30T06:02:54.919Z,6.76
2019-03-30T06:05:23.806Z,6.90
2019-03-30T06:07:52.677Z,7.20
2019-03-30T06:10:22.143Z,7.18
2019-03-30T06:12:51.532Z,7.44
2019-03-30T06:15:21.048Z,7.66
2019-03-30T06:17:50.575Z,7.70
2019-03-30T06:20:20.036Z,7.68
2019-03-30T06:22:49.478Z,7.81
2019-03-30T06:25:18.934Z,7.90
2019-03-30T06:27:48.373Z,8.08
2019-03-30T06:30:25.401Z,8.18
2019-03-30T06:32:54.806Z,8.02
2019-03-30T06:35:24.265Z,8.11
2019-03-30T06:37:53.798Z,8.10
2019-03-30T06:40:23.288Z,8.38
2019-03-30T06:42:52.787Z,8.56
2019-03-30T06:45:22.259Z,8.60
2019-03-30T06:47:53.134Z,8.96
2019-03-30T06:50:22.603Z,9.11
2019-03-30T06:52:57.882Z,9.04
2019-03-30T06:55:23.283Z,9.14
2019-03-30T06:57:52.771Z,9.19
2019-03-30T07:00:53.277Z,8.96
2019-03-30T07:03:23.305Z,8.81
2019-03-30T07:05:54.873Z,9.01
2019-03-30T07:08:25.775Z,9.10
2019-03-30T07:10:55.217Z,9.68
2019-03-30T07:13:26.387Z,9.28
2019-03-30T07:15:57.110Z,9.48
2019-03-30T07:18:26.542Z,9.60
2019-03-30T07:20:56.018Z,9.83
2019-03-30T07:23:25.505Z,10.07
2019-03-30T07:25:55.017Z,10.02
2019-03-30T07:28:24.473Z,10.13
2019-03-30T07:30:53.929Z,10.18
2019-03-30T07:33:23.418Z,10.00
2019-03-30T07:35:52.898Z,10.03
2019-03-30T07:38:22.277Z,10.35
2019-03-30T07:40:51.742Z,10.38
2019-03-30T07:43:21.168Z,10.57
2019-03-30T07:45:50.624Z,11.01
2019-03-30T07:48:20.081Z,11.11
2019-03-30T07:50:49.517Z,11.59
2019-03-30T07:53:26.182Z,12.08
2019-03-30T07:55:50.131Z,12.33
2019-03-30T07:58:19.789Z,12.81
2019-03-30T08:00:49.242Z,12.27
2019-03-30T08:03:18.675Z,12.21
2019-03-30T08:05:48.111Z,12.52
2019-03-30T08:08:17.624Z,13.00
2019-03-30T08:10:47.769Z,12.90
2019-03-30T08:13:17.187Z,13.30
2019-03-30T08:15:46.643Z,13.46
2019-03-30T08:18:16.089Z,14.15
2019-03-30T08:20:45.630Z,14.37
2019-03-30T08:23:15.083Z,14.43
2019-03-30T08:25:44.587Z,14.55
2019-03-30T08:28:14.090Z,14.66
2019-03-30T08:30:43.612Z,14.19
2019-03-30T08:33:13.087Z,14.84
2019-03-30T08:35:42.518Z,14.90
2019-03-30T08:38:12.054Z,15.15
2019-03-30T08:40:41.558Z,15.64
2019-03-30T08:43:11.038Z,15.68
2019-03-30T08:45:40.507Z,16.06
2019-03-30T08:48:10.075Z,15.45
2019-03-30T08:50:39.578Z,15.54
2019-03-30T08:53:09.028Z,16.03
2019-03-30T08:55:38.623Z,15.98
2019-03-30T08:58:08.128Z,16.09
2019-03-30T09:00:41.759Z,16.22
2019-03-30T09:03:11.363Z,16.33
2019-03-30T09:05:41.289Z,15.68
2019-03-30T09:08:10.973Z,15.87
2019-03-30T09:10:40.416Z,15.94
2019-03-30T09:13:09.865Z,15.96
2019-03-30T09:15:39.310Z,15.95
2019-03-30T09:18:08.844Z,15.78
2019-03-30T09:20:39.877Z,16.15
2019-03-30T09:23:09.308Z,16.33
2019-03-30T09:25:39.242Z,16.44
2019-03-30T09:28:08.681Z,16.60
2019-03-30T09:30:38.213Z,16.91
2019-03-30T09:33:07.725Z,16.73
2019-03-30T09:35:37.188Z,17.62
2019-03-30T09:38:06.659Z,17.79
2019-03-30T09:40:36.101Z,16.94
2019-03-30T09:43:05.630Z,17.93
2019-03-30T09:45:35.074Z,18.20
2019-03-30T09:48:04.562Z,18.08
2019-03-30T09:50:34.048Z,18.01
2019-03-30T09:53:03.628Z,17.72
2019-03-30T09:55:33.485Z,18.14
2019-03-30T09:58:02.973Z,18.96
2019-03-30T10:00:32.403Z,18.49
2019-03-30T10:03:01.845Z,18.69
2019-03-30T10:05:31.384Z,19.39
2019-03-30T10:08:00.843Z,19.83
2019-03-30T10:10:30.325Z,20.04
2019-03-30T10:12:59.814Z,20.07
2019-03-30T10:15:29.405Z,19.89
2019-03-30T10:17:59.016Z,19.86
2019-03-30T10:20:28.504Z,19.68
2019-03-30T10:22:57.953Z,18.91
2019-03-30T10:25:27.424Z,18.67
2019-03-30T10:27:56.931Z,19.01
2019-03-30T10:30:26.344Z,18.83
2019-03-30T10:32:55.802Z,18.25
2019-03-30T10:35:25.230Z,18.40
2019-03-30T10:37:54.700Z,18.35
2019-03-30T10:40:24.150Z,18.36
2019-03-30T10:42:53.608Z,17.81
2019-03-30T10:45:23.058Z,17.73
2019-03-30T10:47:52.541Z,18.42
2019-03-30T10:50:21.990Z,18.34
2019-03-30T10:52:51.573Z,18.70
2019-03-30T10:55:21.078Z,18.57
2019-03-30T10:57:50.582Z,19.52
2019-03-30T11:00:37.619Z,19.31
2019-03-30T11:03:07.348Z,18.83
2019-03-30T11:05:36.783Z,19.72
2019-03-30T11:08:06.779Z,20.59
2019-03-30T11:10:36.334Z,20.54
2019-03-30T11:13:05.892Z,18.88
2019-03-30T11:15:35.454Z,19.37
2019-03-30T11:18:05.003Z,18.94
2019-03-30T11:20:34.517Z,18.99
2019-03-30T11:23:04.158Z,19.44
2019-03-30T11:25:33.676Z,18.91
2019-03-30T11:28:03.142Z,18.39
2019-03-30T11:30:32.595Z,20.00
2019-03-30T11:33:02.261Z,19.51
2019-03-30T11:35:31.666Z,19.69
2019-03-30T11:38:01.223Z,20.30
2019-03-30T11:40:30.687Z,20.64
2019-03-30T11:43:00.151Z,20.12
2019-03-30T11:45:29.609Z,20.52
2019-03-30T11:47:59.107Z,19.65
2019-03-30T11:50:28.556Z,19.78
2019-03-30T11:52:58.003Z,20.17
2019-03-30T11:55:27.457Z,19.80
2019-03-30T11:57:56.907Z,19.87
2019-03-30T12:00:26.377Z,20.24
2019-03-30T12:02:55.896Z,20.36
2019-03-30T12:05:25.400Z,20.06
2019-03-30T12:07:54.869Z,19.67
2019-03-30T12:10:24.429Z,19.57
2019-03-30T12:12:53.864Z,19.91
2019-03-30T12:15:23.303Z,20.29
2019-03-30T12:17:52.768Z,20.51
2019-03-30T12:20:22.193Z,20.73
2019-03-30T12:22:51.672Z,20.44
2019-03-30T12:25:34.496Z,20.65
2019-03-30T12:27:52.317Z,21.23
2019-03-30T12:30:21.853Z,20.76
2019-03-30T12:32:51.327Z,20.98
2019-03-30T12:35:21.267Z,21.20
2019-03-30T12:37:50.728Z,21.58
2019-03-30T12:40:20.255Z,21.39
2019-03-30T12:42:49.779Z,21.32
2019-03-30T12:45:22.092Z,21.81
2019-03-30T12:47:52.877Z,21.60
2019-03-30T12:50:22.374Z,21.54
2019-03-30T12:52:51.836Z,21.57
2019-03-30T12:55:21.492Z,21.60
2019-03-30T12:57:51.032Z,21.88
2019-03-30T13:00:20.588Z,21.63
2019-03-30T13:02:50.240Z,22.25
2019-03-30T13:05:19.815Z,21.94
2019-03-30T13:07:49.323Z,21.68
2019-03-30T13:10:19.173Z,20.83
2019-03-30T13:12:48.737Z,20.86
2019-03-30T13:15:18.178Z,21.43
2019-03-30T13:17:47.786Z,21.50
2019-03-30T13:20:18.837Z,22.09
2019-03-30T13:22:48.300Z,21.66
2019-03-30T13:25:17.744Z,22.08
2019-03-30T13:27:47.357Z,22.05
2019-03-30T13:30:17.366Z,21.99
2019-03-30T13:32:46.869Z,21.66
2019-03-30T13:35:16.388Z,21.75
2019-03-30T13:37:45.866Z,21.07
2019-03-30T13:40:15.359Z,21.46
2019-03-30T13:42:44.784Z,21.45
2019-03-30T13:45:14.661Z,21.22
2019-03-30T13:47:44.163Z,21.33
2019-03-30T13:50:14.116Z,21.54
2019-03-30T13:52:43.685Z,21.83
2019-03-30T13:55:13.510Z,21.99
2019-03-30T13:57:42.930Z,22.30
2019-03-30T14:00:13.086Z,21.97
2019-03-30T14:02:44.117Z,21.75
2019-03-30T14:05:13.896Z,21.53
2019-03-30T14:07:43.379Z,21.89
2019-03-30T14:10:13.937Z,21.41
2019-03-30T14:12:43.413Z,21.23
2019-03-30T14:15:12.971Z,21.76
2019-03-30T14:17:42.346Z,21.51
2019-03-30T14:20:11.930Z,21.64
2019-03-30T14:22:41.432Z,21.66
2019-03-30T14:25:10.944Z,21.69
2019-03-30T14:27:40.419Z,21.03
2019-03-30T14:30:11.355Z,20.83
2019-03-30T14:32:40.864Z,20.85
2019-03-30T14:35:10.492Z,21.01
2019-03-30T14:37:39.927Z,20.89
2019-03-30T14:40:10.093Z,20.82
2019-03-30T14:42:39.523Z,20.58
2019-03-30T14:45:09.180Z,20.57
2019-03-30T14:47:38.776Z,20.47
2019-03-30T14:50:09.697Z,20.36
2019-03-30T14:52:39.199Z,20.37
2019-03-30T14:55:09.879Z,20.24
2019-03-30T14:57:39.317Z,20.34
2019-03-30T15:00:12.311Z,20.58
2019-03-30T15:02:41.890Z,20.44
2019-03-30T15:05:11.551Z,20.08
2019-03-30T15:07:46.142Z,20.11
2019-03-30T15:10:15.795Z,19.69
2019-03-30T15:12:45.251Z,19.80
2019-03-30T15:15:16.295Z,19.73
2019-03-30T15:17:45.762Z,19.43
2019-03-30T15:20:15.489Z,19.34
2019-03-30T15:22:44.975Z,19.15
2019-03-30T15:25:14.537Z,18.91
2019-03-30T15:27:43.917Z,18.68
2019-03-30T15:30:13.693Z,18.75
2019-03-30T15:32:43.141Z,19.14
2019-03-30T15:35:12.789Z,19.14
2019-03-30T15:37:42.305Z,19.20
2019-03-30T15:40:11.896Z,19.51
2019-03-30T15:42:41.358Z,19.26
2019-03-30T15:45:11.893Z,19.43
2019-03-30T15:47:41.353Z,19.61
2019-03-30T15:50:11.537Z,19.30
2019-03-30T15:52:41.165Z,19.01
2019-03-30T15:55:11.067Z,19.18
2019-03-30T15:57:40.518Z,18.63
2019-03-30T16:00:12.993Z,18.05
2019-03-30T16:02:42.439Z,17.55
2019-03-30T16:05:15.389Z,17.30
2019-03-30T16:07:43.516Z,17.06
2019-03-30T16:10:13.554Z,16.76
2019-03-30T16:12:42.985Z,16.66
2019-03-30T16:15:12.655Z,16.45
2019-03-30T16:17:42.192Z,16.31
2019-03-30T16:20:11.968Z,16.13
2019-03-30T16:22:41.423Z,15.97
2019-03-30T16:25:11.122Z,15.88
2019-03-30T16:27:40.692Z,15.95
2019-03-30T16:30:12.588Z,15.81
2019-03-30T16:32:42.069Z,15.66
2019-03-30T16:35:11.513Z,15.46
2019-03-30T16:37:40.989Z,15.32
2019-03-30T16:40:10.543Z,15.13
2019-03-30T16:42:40.053Z,14.86
2019-03-30T16:45:09.653Z,14.80
2019-03-30T16:47:39.247Z,14.58
2019-03-30T16:50:09.095Z,14.57
2019-03-30T16:52:40.939Z,14.56
2019-03-30T16:55:09.947Z,14.57
2019-03-30T16:57:43.631Z,14.50
2019-03-30T17:00:11.355Z,14.35
2019-03-30T17:02:40.833Z,14.24
2019-03-30T17:05:10.525Z,14.16
2019-03-30T17:07:39.969Z,14.12
2019-03-30T17:10:10.448Z,14.00
2019-03-30T17:12:40.002Z,13.94
2019-03-30T17:15:10.390Z,13.86
2019-03-30T17:17:39.857Z,13.65
2019-03-30T17:20:10.193Z,13.52
2019-03-30T17:22:39.717Z,13.40
2019-03-30T17:25:09.340Z,13.41
2019-03-30T17:27:38.829Z,13.31
2019-03-30T17:30:09.799Z,13.19
2019-03-30T17:32:39.232Z,13.09
2019-03-30T17:35:08.852Z,12.97
2019-03-30T17:37:38.307Z,12.85
2019-03-30T17:40:08.594Z,12.72
2019-03-30T17:42:38.833Z,12.68
2019-03-30T17:45:10.006Z,12.56
2019-03-30T17:47:39.489Z,12.54
2019-03-30T17:50:10.654Z,12.55
2019-03-30T17:52:40.089Z,12.44
2019-03-30T17:55:10.267Z,12.25
2019-03-30T17:57:39.845Z,12.23
2019-03-30T18:00:13.470Z,12.25
2019-03-30T18:02:43.070Z,12.24
2019-03-30T18:05:12.640Z,12.19
2019-03-30T18:07:42.189Z,12.08
2019-03-30T18:10:12.176Z,12.04
2019-03-30T18:12:41.734Z,11.86
2019-03-30T18:15:13.098Z,11.74
2019-03-30T18:17:42.621Z,11.77
2019-03-30T18:20:12.782Z,11.83
2019-03-30T18:22:42.262Z,11.77
2019-03-30T18:25:12.138Z,11.80
2019-03-30T18:27:41.581Z,11.85
2019-03-30T18:30:11.828Z,11.79
2019-03-30T18:32:42.723Z,11.72
2019-03-30T18:35:12.372Z,11.69
2019-03-30T18:37:42.143Z,11.66
2019-03-30T18:40:14.522Z,11.66
2019-03-30T18:42:44.158Z,11.63
2019-03-30T18:45:16.617Z,11.63
2019-03-30T18:47:46.054Z,11.56
2019-03-30T18:50:15.606Z,11.54
2019-03-30T18:52:46.038Z,11.50
2019-03-30T18:55:18.449Z,11.46
2019-03-30T18:57:47.865Z,11.42
2019-03-30T19:00:20.385Z,11.33
2019-03-30T19:02:49.884Z,11.30
2019-03-30T19:05:19.299Z,11.24
2019-03-30T19:07:48.734Z,11.20
2019-03-30T19:10:18.238Z,11.14
2019-03-30T19:12:49.546Z,10.99
2019-03-30T19:15:18.953Z,11.12
2019-03-30T19:17:48.483Z,11.16
2019-03-30T19:20:17.967Z,11.19
2019-03-30T19:22:47.407Z,11.14
2019-03-30T19:25:17.832Z,11.12
2019-03-30T19:27:47.297Z,11.05
2019-03-30T19:30:17.825Z,11.03
2019-03-30T19:32:47.323Z,10.95
2019-03-30T19:35:16.758Z,10.92
2019-03-30T19:37:46.342Z,10.89
2019-03-30T19:40:15.921Z,10.86
2019-03-30T19:42:45.407Z,10.93
2019-03-30T19:45:16.042Z,10.91
2019-03-30T19:47:45.549Z,10.88
2019-03-30T19:50:15.379Z,10.86
2019-03-30T19:52:44.795Z,10.76
2019-03-30T19:55:14.271Z,10.71
2019-03-30T19:57:43.856Z,10.77
2019-03-30T20:00:14.218Z,10.73
2019-03-30T20:02:43.656Z,10.71
2019-03-30T20:05:14.023Z,10.65
2019-03-30T20:07:43.494Z,10.60
2019-03-30T20:10:13.151Z,10.59
2019-03-30T20:12:42.945Z,10.53
2019-03-30T20:15:12.579Z,10.53
2019-03-30T20:17:42.038Z,10.50
2019-03-30T20:20:11.707Z,10.45
2019-03-30T20:22:41.213Z,10.39
2019-03-30T20:25:10.679Z,10.38
2019-03-30T20:27:40.110Z,10.26
2019-03-30T20:30:11.065Z,10.14
2019-03-30T20:32:43.137Z,10.07
2019-03-30T20:35:11.968Z,10.01
2019-03-30T20:37:41.447Z,9.97
2019-03-30T20:40:11.596Z,9.93
2019-03-30T20:42:41.019Z,9.99
2019-03-30T20:45:10.836Z,9.89
2019-03-30T20:47:40.369Z,9.88
2019-03-30T20:50:09.903Z,9.83
2019-03-30T20:52:39.422Z,9.83
2019-03-30T20:55:08.849Z,9.77
2019-03-30T20:57:38.308Z,9.66
2019-03-30T21:00:10.101Z,9.72
2019-03-30T21:02:39.554Z,9.64
2019-03-30T21:05:09.996Z,9.52
2019-03-30T21:07:41.647Z,9.45
2019-03-30T21:10:10.906Z,9.42
2019-03-30T21:12:40.349Z,9.28
2019-03-30T21:15:10.295Z,9.19
2019-03-30T21:17:39.785Z,9.15
2019-03-30T21:20:09.598Z,9.04
2019-03-30T21:22:39.032Z,8.99
2019-03-30T21:25:08.675Z,8.91
2019-03-30T21:27:38.143Z,8.88
2019-03-30T21:30:30.935Z,8.80
2019-03-30T21:33:00.370Z,8.70
2019-03-30T21:35:29.846Z,8.62
2019-03-30T21:37:59.386Z,8.54
2019-03-30T21:40:28.851Z,8.46
2019-03-30T21:42:58.286Z,8.36
2019-03-30T21:45:27.734Z,8.29
2019-03-30T21:47:57.367Z,8.27
2019-03-30T21:50:26.799Z,8.18
2019-03-30T21:52:56.172Z,8.13
2019-03-30T21:55:25.634Z,8.08
2019-03-30T21:57:55.128Z,8.08
2019-03-30T22:00:38.636Z,8.13
2019-03-30T22:03:08.182Z,8.19
2019-03-30T22:05:37.619Z,8.12
2019-03-30T22:08:07.835Z,8.11
2019-03-30T22:10:37.283Z,8.06
2019-03-30T22:13:06.769Z,8.04
2019-03-30T22:15:36.228Z,8.01
2019-03-30T22:18:05.656Z,8.01
2019-03-30T22:20:35.088Z,8.00
2019-03-30T22:23:04.750Z,7.85
2019-03-30T22:25:34.184Z,7.70
2019-03-30T22:28:03.564Z,7.75
2019-03-30T22:30:32.349Z,7.72
2019-03-30T22:33:01.797Z,7.56
2019-03-30T22:35:31.233Z,7.54
2019-03-30T22:38:00.661Z,7.38
2019-03-30T22:40:29.466Z,7.20
2019-03-30T22:42:58.289Z,7.04
2019-03-30T22:45:27.175Z,6.82
2019-03-30T22:47:56.066Z,6.78
2019-03-30T22:50:24.960Z,6.71
2019-03-30T22:52:53.801Z,6.58
2019-03-30T22:55:22.670Z,6.63
2019-03-30T22:57:51.602Z,6.68
2019-03-30T23:00:38.910Z,6.65
2019-03-30T23:03:09.212Z,6.63
2019-03-30T23:05:37.995Z,6.66
2019-03-30T23:08:06.891Z,6.49
2019-03-30T23:10:35.711Z,6.38
2019-03-30T23:13:04.567Z,6.40
2019-03-30T23:15:33.352Z,6.44
2019-03-30T23:18:02.211Z,6.38
2019-03-30T23:20:31.073Z,6.38
2019-03-30T23:22:59.947Z,6.45
2019-03-30T23:25:28.786Z,6.53
2019-03-30T23:27:57.629Z,6.51
2019-03-30T23:30:26.515Z,6.33
2019-03-30T23:32:55.444Z,6.38
2019-03-30T23:35:24.301Z,6.42
2019-03-30T23:37:53.143Z,6.28
2019-03-30T23:40:22.217Z,6.16
2019-03-30T23:42:51.148Z,6.24
2019-03-30T23:45:20.007Z,6.15
2019-03-30T23:47:48.925Z,6.07
2019-03-30T23:50:17.709Z,6.09
2019-03-30T23:52:46.515Z,6.09
2019-03-30T23:55:15.363Z,6.17
2019-03-30T23:57:44.371Z,6.10
